sensor_id;sensor_type;location;lat;lon;timestamp;P1;durP1;ratioP1;P2;durP2;ratioP2
45940;SDS011;31858;46.008;8.978;2023-12-04T00:00:37;1.90;;;1.80;;
45940;SDS011;31858;46.008;8.978;2023-12-04T00:10:40;1.92;;;1.45;;
45940;SDS011;31858;46.008;8.978;2023-12-04T00:20:41;2.13;;;1.52;;
45940;SDS011;31858;46.008;8.978;2023-12-04T00:30:44;1.73;;;1.63;;
45940;SDS011;31858;46.008;8.978;2023-12-04T00:40:46;2.03;;;1.60;;
45940;SDS011;31858;46.008;8.978;2023-12-04T00:50:50;1.77;;;1.45;;
45940;SDS011;31858;46.008;8.978;2023-12-04T01:00:52;2.47;;;1.90;;
45940;SDS011;31858;46.008;8.978;2023-12-04T01:10:55;2.80;;;1.88;;
45940;SDS011;31858;46.008;8.978;2023-12-04T01:20:56;1.50;;;1.40;;
45940;SDS011;31858;46.008;8.978;2023-12-04T01:30:59;1.83;;;1.73;;
45940;SDS011;31858;46.008;8.978;2023-12-04T01:41:01;1.98;;;1.77;;
45940;SDS011;31858;46.008;8.978;2023-12-04T01:51:06;4.10;;;1.90;;
45940;SDS011;31858;46.008;8.978;2023-12-04T02:01:10;1.60;;;1.50;;
45940;SDS011;31858;46.008;8.978;2023-12-04T02:11:14;2.38;;;2.03;;
45940;SDS011;31858;46.008;8.978;2023-12-04T02:21:15;3.70;;;1.95;;
45940;SDS011;31858;46.008;8.978;2023-12-04T02:31:18;2.10;;;1.73;;
45940;SDS011;31858;46.008;8.978;2023-12-04T02:41:22;2.70;;;1.98;;
45940;SDS011;31858;46.008;8.978;2023-12-04T02:51:25;2.08;;;1.63;;
45940;SDS011;31858;46.008;8.978;2023-12-04T03:01:27;2.20;;;2.00;;
45940;SDS011;31858;46.008;8.978;2023-12-04T03:11:30;2.42;;;1.88;;
45940;SDS011;31858;46.008;8.978;2023-12-04T03:21:31;1.90;;;1.70;;
45940;SDS011;31858;46.008;8.978;2023-12-04T03:31:34;3.30;;;2.47;;
45940;SDS011;31858;46.008;8.978;2023-12-04T03:41:36;3.60;;;2.90;;
45940;SDS011;31858;46.008;8.978;2023-12-04T03:51:39;2.38;;;2.00;;
45940;SDS011;31858;46.008;8.978;2023-12-04T04:01:41;3.38;;;2.30;;
45940;SDS011;31858;46.008;8.978;2023-12-04T04:11:44;2.20;;;1.98;;
45940;SDS011;31858;46.008;8.978;2023-12-04T04:21:45;2.25;;;2.05;;
45940;SDS011;31858;46.008;8.978;2023-12-04T04:31:48;2.22;;;2.00;;
45940;SDS011;31858;46.008;8.978;2023-12-04T04:41:50;2.88;;;2.45;;
45940;SDS011;31858;46.008;8.978;2023-12-04T04:51:52;2.50;;;2.20;;
45940;SDS011;31858;46.008;8.978;2023-12-04T05:01:54;2.38;;;1.90;;
45940;SDS011;31858;46.008;8.978;2023-12-04T05:11:57;2.50;;;2.13;;
45940;SDS011;31858;46.008;8.978;2023-12-04T05:21:59;6.63;;;2.80;;
45940;SDS011;31858;46.008;8.978;2023-12-04T05:32:01;2.50;;;2.22;;
45940;SDS011;31858;46.008;8.978;2023-12-04T05:42:03;3.17;;;2.20;;
45940;SDS011;31858;46.008;8.978;2023-12-04T05:52:07;3.60;;;2.33;;
45940;SDS011;31858;46.008;8.978;2023-12-04T06:02:08;3.25;;;2.17;;
45940;SDS011;31858;46.008;8.978;2023-12-04T06:12:11;2.78;;;1.80;;
45940;SDS011;31858;46.008;8.978;2023-12-04T06:22:13;1.92;;;1.73;;
45940;SDS011;31858;46.008;8.978;2023-12-04T06:32:19;2.83;;;2.00;;
45940;SDS011;31858;46.008;8.978;2023-12-04T06:42:21;2.90;;;1.80;;
45940;SDS011;31858;46.008;8.978;2023-12-04T06:52:24;2.20;;;1.73;;
45940;SDS011;31858;46.008;8.978;2023-12-04T07:02:26;5.03;;;2.08;;
45940;SDS011;31858;46.008;8.978;2023-12-04T07:12:29;2.85;;;2.42;;
45940;SDS011;31858;46.008;8.978;2023-12-04T07:22:30;2.92;;;2.30;;
45940;SDS011;31858;46.008;8.978;2023-12-04T07:32:34;2.42;;;2.22;;
45940;SDS011;31858;46.008;8.978;2023-12-04T07:42:35;3.47;;;2.40;;
45940;SDS011;31858;46.008;8.978;2023-12-04T07:52:38;3.47;;;2.22;;
45940;SDS011;31858;46.008;8.978;2023-12-04T08:02:40;30.40;;;16.85;;
45940;SDS011;31858;46.008;8.978;2023-12-04T08:12:46;3.38;;;2.67;;
45940;SDS011;31858;46.008;8.978;2023-12-04T08:22:47;4.22;;;2.90;;
45940;SDS011;31858;46.008;8.978;2023-12-04T08:32:50;2.10;;;1.90;;
45940;SDS011;31858;46.008;8.978;2023-12-04T08:42:52;2.00;;;1.80;;
45940;SDS011;31858;46.008;8.978;2023-12-04T08:52:55;3.22;;;2.45;;
45940;SDS011;31858;46.008;8.978;2023-12-04T09:02:57;2.95;;;2.30;;
45940;SDS011;31858;46.008;8.978;2023-12-04T09:13:00;4.20;;;2.58;;
45940;SDS011;31858;46.008;8.978;2023-12-04T09:23:02;4.63;;;2.33;;
45940;SDS011;31858;46.008;8.978;2023-12-04T09:33:04;3.80;;;2.97;;
45940;SDS011;31858;46.008;8.978;2023-12-04T09:43:06;3.22;;;2.42;;
45940;SDS011;31858;46.008;8.978;2023-12-04T09:53:10;3.33;;;2.60;;
45940;SDS011;31858;46.008;8.978;2023-12-04T10:03:13;6.03;;;3.38;;
45940;SDS011;31858;46.008;8.978;2023-12-04T10:13:17;6.55;;;4.20;;
45940;SDS011;31858;46.008;8.978;2023-12-04T10:23:19;7.00;;;4.50;;
45940;SDS011;31858;46.008;8.978;2023-12-04T10:33:24;3.65;;;3.00;;
45940;SDS011;31858;46.008;8.978;2023-12-04T10:43:27;4.45;;;3.67;;
45940;SDS011;31858;46.008;8.978;2023-12-04T10:53:30;4.93;;;3.20;;
45940;SDS011;31858;46.008;8.978;2023-12-04T11:03:34;7.68;;;3.40;;
45940;SDS011;31858;46.008;8.978;2023-12-04T11:13:45;8.35;;;5.45;;
45940;SDS011;31858;46.008;8.978;2023-12-04T11:23:49;11.65;;;6.50;;
45940;SDS011;31858;46.008;8.978;2023-12-04T11:33:52;5.68;;;4.38;;
45940;SDS011;31858;46.008;8.978;2023-12-04T11:43:55;7.68;;;5.18;;
45940;SDS011;31858;46.008;8.978;2023-12-04T11:53:58;14.18;;;6.60;;
45940;SDS011;31858;46.008;8.978;2023-12-04T12:04:00;6.35;;;4.53;;
45940;SDS011;31858;46.008;8.978;2023-12-04T12:14:03;6.93;;;4.88;;
45940;SDS011;31858;46.008;8.978;2023-12-04T12:24:06;8.13;;;5.03;;
45940;SDS011;31858;46.008;8.978;2023-12-04T12:34:09;8.15;;;5.60;;
45940;SDS011;31858;46.008;8.978;2023-12-04T12:44:11;7.50;;;5.57;;
45940;SDS011;31858;46.008;8.978;2023-12-04T12:54:14;10.95;;;6.22;;
45940;SDS011;31858;46.008;8.978;2023-12-04T13:04:15;10.85;;;6.68;;
45940;SDS011;31858;46.008;8.978;2023-12-04T13:14:18;11.88;;;6.85;;
45940;SDS011;31858;46.008;8.978;2023-12-04T13:24:20;10.38;;;7.50;;
45940;SDS011;31858;46.008;8.978;2023-12-04T13:34:23;20.55;;;11.75;;
45940;SDS011;31858;46.008;8.978;2023-12-04T13:44:24;19.90;;;12.50;;
45940;SDS011;31858;46.008;8.978;2023-12-04T13:54:27;9.38;;;6.82;;
45940;SDS011;31858;46.008;8.978;2023-12-04T14:04:43;8.82;;;6.28;;
45940;SDS011;31858;46.008;8.978;2023-12-04T14:14:46;6.93;;;5.85;;
45940;SDS011;31858;46.008;8.978;2023-12-04T14:24:48;11.35;;;6.40;;
45940;SDS011;31858;46.008;8.978;2023-12-04T14:34:51;11.93;;;7.50;;
45940;SDS011;31858;46.008;8.978;2023-12-04T14:44:53;12.75;;;7.68;;
45940;SDS011;31858;46.008;8.978;2023-12-04T14:54:55;11.57;;;8.05;;
45940;SDS011;31858;46.008;8.978;2023-12-04T15:05:24;11.77;;;8.45;;
45940;SDS011;31858;46.008;8.978;2023-12-04T15:15:54;28.92;;;16.23;;
45940;SDS011;31858;46.008;8.978;2023-12-04T15:26:13;31.10;;;15.80;;
45940;SDS011;31858;46.008;8.978;2023-12-04T15:36:18;25.63;;;15.95;;
45940;SDS011;31858;46.008;8.978;2023-12-04T15:46:22;32.47;;;15.93;;
45940;SDS011;31858;46.008;8.978;2023-12-04T15:56:26;29.08;;;15.60;;
45940;SDS011;31858;46.008;8.978;2023-12-04T16:06:28;24.13;;;13.90;;
45940;SDS011;31858;46.008;8.978;2023-12-04T16:16:31;28.25;;;16.45;;
45940;SDS011;31858;46.008;8.978;2023-12-04T16:26:32;30.17;;;15.95;;
45940;SDS011;31858;46.008;8.978;2023-12-04T16:36:38;22.23;;;13.40;;
45940;SDS011;31858;46.008;8.978;2023-12-04T16:46:40;23.95;;;14.05;;
45940;SDS011;31858;46.008;8.978;2023-12-04T16:56:43;25.73;;;17.35;;
45940;SDS011;31858;46.008;8.978;2023-12-04T17:06:44;22.25;;;15.77;;
45940;SDS011;31858;46.008;8.978;2023-12-04T17:16:47;22.65;;;13.38;;
45940;SDS011;31858;46.008;8.978;2023-12-04T17:26:49;27.05;;;16.17;;
45940;SDS011;31858;46.008;8.978;2023-12-04T17:36:53;25.88;;;14.02;;
45940;SDS011;31858;46.008;8.978;2023-12-04T17:46:54;21.27;;;12.88;;
45940;SDS011;31858;46.008;8.978;2023-12-04T17:56:57;18.10;;;12.20;;
45940;SDS011;31858;46.008;8.978;2023-12-04T18:06:59;19.83;;;15.23;;
45940;SDS011;31858;46.008;8.978;2023-12-04T18:17:04;20.00;;;12.45;;
45940;SDS011;31858;46.008;8.978;2023-12-04T18:27:06;17.73;;;12.82;;
45940;SDS011;31858;46.008;8.978;2023-12-04T18:37:17;19.00;;;11.93;;
45940;SDS011;31858;46.008;8.978;2023-12-04T18:47:22;15.02;;;11.40;;
45940;SDS011;31858;46.008;8.978;2023-12-04T18:57:27;15.88;;;11.18;;
45940;SDS011;31858;46.008;8.978;2023-12-04T19:07:29;14.50;;;10.50;;
45940;SDS011;31858;46.008;8.978;2023-12-04T19:17:32;19.88;;;11.50;;
45940;SDS011;31858;46.008;8.978;2023-12-04T19:27:33;19.23;;;13.23;;
45940;SDS011;31858;46.008;8.978;2023-12-04T19:37:36;18.02;;;12.88;;
45940;SDS011;31858;46.008;8.978;2023-12-04T19:47:38;17.80;;;12.48;;
45940;SDS011;31858;46.008;8.978;2023-12-04T19:57:41;20.55;;;15.25;;
45940;SDS011;31858;46.008;8.978;2023-12-04T20:07:42;30.60;;;19.92;;
45940;SDS011;31858;46.008;8.978;2023-12-04T20:17:45;21.60;;;16.10;;
45940;SDS011;31858;46.008;8.978;2023-12-04T20:27:47;18.95;;;14.20;;
45940;SDS011;31858;46.008;8.978;2023-12-04T20:37:50;17.38;;;12.02;;
45940;SDS011;31858;46.008;8.978;2023-12-04T20:47:52;22.35;;;16.00;;
45940;SDS011;31858;46.008;8.978;2023-12-04T20:57:55;23.98;;;16.17;;
45940;SDS011;31858;46.008;8.978;2023-12-04T21:07:57;17.10;;;11.95;;
45940;SDS011;31858;46.008;8.978;2023-12-04T21:18:00;20.23;;;13.85;;
45940;SDS011;31858;46.008;8.978;2023-12-04T21:28:01;15.70;;;11.85;;
45940;SDS011;31858;46.008;8.978;2023-12-04T21:38:07;15.23;;;11.45;;
45940;SDS011;31858;46.008;8.978;2023-12-04T21:48:08;13.95;;;9.57;;
45940;SDS011;31858;46.008;8.978;2023-12-04T21:58:11;12.95;;;9.55;;
45940;SDS011;31858;46.008;8.978;2023-12-04T22:08:13;11.90;;;8.35;;
45940;SDS011;31858;46.008;8.978;2023-12-04T22:18:16;11.77;;;9.55;;
45940;SDS011;31858;46.008;8.978;2023-12-04T22:28:18;18.73;;;13.73;;
45940;SDS011;31858;46.008;8.978;2023-12-04T22:38:21;17.92;;;11.68;;
45940;SDS011;31858;46.008;8.978;2023-12-04T22:48:22;18.38;;;14.38;;
45940;SDS011;31858;46.008;8.978;2023-12-04T22:58:25;25.70;;;19.45;;
45940;SDS011;31858;46.008;8.978;2023-12-04T23:08:27;25.08;;;19.02;;
45940;SDS011;31858;46.008;8.978;2023-12-04T23:18:30;25.60;;;20.52;;
45940;SDS011;31858;46.008;8.978;2023-12-04T23:28:31;27.67;;;20.60;;
45940;SDS011;31858;46.008;8.978;2023-12-04T23:38:34;30.27;;;20.90;;
45940;SDS011;31858;46.008;8.978;2023-12-04T23:48:36;28.30;;;18.80;;
45940;SDS011;31858;46.008;8.978;2023-12-04T23:58:40;27.15;;;19.08;;
